sensor_id;sensor_type;location;lat;lon;timestamp;P1;P2;P0
80965;PMS5003;70426;37.772;-122.432;2024-02-23T00:01:55;3;3;
80965;PMS5003;70426;37.772;-122.432;2024-02-23T00:04:20;3;3;
80965;PMS5003;70426;37.772;-122.432;2024-02-23T00:06:45;2;2;
80965;PMS5003;70426;37.772;-122.432;2024-02-23T00:09:10;4;3;
80965;PMS5003;70426;37.772;-122.432;2024-02-23T00:11:35;2;2;
80965;PMS5003;70426;37.772;-122.432;2024-02-23T00:14:00;3;3;
80965;PMS5003;70426;37.772;-122.432;2024-02-23T00:16:25;3;3;
80965;PMS5003;70426;37.772;-122.432;2024-02-23T00:18:50;2;2;
80965;PMS5003;70426;37.772;-122.432;2024-02-23T00:21:15;3;3;
80965;PMS5003;70426;37.772;-122.432;2024-02-23T00:23:40;4;4;
80965;PMS5003;70426;37.772;-122.432;2024-02-23T00:26:05;2;2;
80965;PMS5003;70426;37.772;-122.432;2024-02-23T00:28:30;3;3;
80965;PMS5003;70426;37.772;-122.432;2024-02-23T00:30:55;3;3;
80965;PMS5003;70426;37.772;-122.432;2024-02-23T00:33:20;3;3;
80965;PMS5003;70426;37.772;-122.432;2024-02-23T00:35:45;2;2;
80965;PMS5003;70426;37.772;-122.432;2024-02-23T00:38:10;5;5;
80965;PMS5003;70426;37.772;-122.432;2024-02-23T00:40:35;3;3;
80965;PMS5003;70426;37.772;-122.432;2024-02-23T00:43:00;3;3;
80965;PMS5003;70426;37.772;-122.432;2024-02-23T00:45:25;5;3;
80965;PMS5003;70426;37.772;-122.432;2024-02-23T00:47:50;1;1;
80965;PMS5003;70426;37.772;-122.432;2024-02-23T00:50:15;2;2;
80965;PMS5003;70426;37.772;-122.432;2024-02-23T00:52:40;2;2;
80965;PMS5003;70426;37.772;-122.432;2024-02-23T00:55:06;3;3;
80965;PMS5003;70426;37.772;-122.432;2024-02-23T00:57:30;3;3;
80965;PMS5003;70426;37.772;-122.432;2024-02-23T00:59:55;3;2;
80965;PMS5003;70426;37.772;-122.432;2024-02-23T01:02:21;1;1;
80965;PMS5003;70426;37.772;-122.432;2024-02-23T01:04:46;4;3;
80965;PMS5003;70426;37.772;-122.432;2024-02-23T01:07:10;1;1;
80965;PMS5003;70426;37.772;-122.432;2024-02-23T01:09:36;3;2;
80965;PMS5003;70426;37.772;-122.432;2024-02-23T01:12:01;3;3;
80965;PMS5003;70426;37.772;-122.432;2024-02-23T01:14:26;3;3;
80965;PMS5003;70426;37.772;-122.432;2024-02-23T01:16:51;2;2;
80965;PMS5003;70426;37.772;-122.432;2024-02-23T01:19:16;2;2;
80965;PMS5003;70426;37.772;-122.432;2024-02-23T01:21:41;2;2;
80965;PMS5003;70426;37.772;-122.432;2024-02-23T01:24:06;3;3;
80965;PMS5003;70426;37.772;-122.432;2024-02-23T01:26:31;2;2;
80965;PMS5003;70426;37.772;-122.432;2024-02-23T01:28:56;3;3;
80965;PMS5003;70426;37.772;-122.432;2024-02-23T01:31:21;3;2;
80965;PMS5003;70426;37.772;-122.432;2024-02-23T01:33:46;3;3;
80965;PMS5003;70426;37.772;-122.432;2024-02-23T01:36:11;4;4;
80965;PMS5003;70426;37.772;-122.432;2024-02-23T01:38:36;3;3;
80965;PMS5003;70426;37.772;-122.432;2024-02-23T01:41:01;3;2;
80965;PMS5003;70426;37.772;-122.432;2024-02-23T01:43:26;2;2;
80965;PMS5003;70426;37.772;-122.432;2024-02-23T01:45:51;3;3;
80965;PMS5003;70426;37.772;-122.432;2024-02-23T01:48:16;4;3;
80965;PMS5003;70426;37.772;-122.432;2024-02-23T01:50:41;3;3;
80965;PMS5003;70426;37.772;-122.432;2024-02-23T01:53:06;4;3;
80965;PMS5003;70426;37.772;-122.432;2024-02-23T01:55:31;3;3;
80965;PMS5003;70426;37.772;-122.432;2024-02-23T01:57:56;2;2;
80965;PMS5003;70426;37.772;-122.432;2024-02-23T02:00:21;3;2;
80965;PMS5003;70426;37.772;-122.432;2024-02-23T02:02:47;2;2;
80965;PMS5003;70426;37.772;-122.432;2024-02-23T02:05:11;2;2;
80965;PMS5003;70426;37.772;-122.432;2024-02-23T02:07:36;3;3;
80965;PMS5003;70426;37.772;-122.432;2024-02-23T02:10:02;2;2;
80965;PMS5003;70426;37.772;-122.432;2024-02-23T02:12:26;3;3;
80965;PMS5003;70426;37.772;-122.432;2024-02-23T02:14:51;3;3;
80965;PMS5003;70426;37.772;-122.432;2024-02-23T02:17:17;6;4;
80965;PMS5003;70426;37.772;-122.432;2024-02-23T02:19:45;2;2;
80965;PMS5003;70426;37.772;-122.432;2024-02-23T02:22:07;3;3;
80965;PMS5003;70426;37.772;-122.432;2024-02-23T02:24:32;3;2;
80965;PMS5003;70426;37.772;-122.432;2024-02-23T02:26:57;4;4;
80965;PMS5003;70426;37.772;-122.432;2024-02-23T02:29:22;2;2;
80965;PMS5003;70426;37.772;-122.432;2024-02-23T02:31:47;3;3;
80965;PMS5003;70426;37.772;-122.432;2024-02-23T02:34:12;2;2;
80965;PMS5003;70426;37.772;-122.432;2024-02-23T02:36:37;2;2;
80965;PMS5003;70426;37.772;-122.432;2024-02-23T02:39:02;3;3;
80965;PMS5003;70426;37.772;-122.432;2024-02-23T02:41:28;2;2;
80965;PMS5003;70426;37.772;-122.432;2024-02-23T02:43:52;3;3;
80965;PMS5003;70426;37.772;-122.432;2024-02-23T02:46:17;3;2;
80965;PMS5003;70426;37.772;-122.432;2024-02-23T02:48:42;4;3;
80965;PMS5003;70426;37.772;-122.432;2024-02-23T02:51:07;3;3;
80965;PMS5003;70426;37.772;-122.432;2024-02-23T02:53:32;2;2;
80965;PMS5003;70426;37.772;-122.432;2024-02-23T02:55:57;3;3;
80965;PMS5003;70426;37.772;-122.432;2024-02-23T02:58:22;2;2;
80965;PMS5003;70426;37.772;-122.432;2024-02-23T03:00:47;3;3;
80965;PMS5003;70426;37.772;-122.432;2024-02-23T03:03:12;2;2;
80965;PMS5003;70426;37.772;-122.432;2024-02-23T03:05:37;3;3;
80965;PMS5003;70426;37.772;-122.432;2024-02-23T03:08:03;5;5;
80965;PMS5003;70426;37.772;-122.432;2024-02-23T03:10:27;3;3;
80965;PMS5003;70426;37.772;-122.432;2024-02-23T03:12:52;4;4;
80965;PMS5003;70426;37.772;-122.432;2024-02-23T03:15:18;4;3;
80965;PMS5003;70426;37.772;-122.432;2024-02-23T03:17:43;3;3;
80965;PMS5003;70426;37.772;-122.432;2024-02-23T03:20:08;5;4;
80965;PMS5003;70426;37.772;-122.432;2024-02-23T03:22:33;5;3;
80965;PMS5003;70426;37.772;-122.432;2024-02-23T03:24:58;3;3;
80965;PMS5003;70426;37.772;-122.432;2024-02-23T03:27:26;3;3;
80965;PMS5003;70426;37.772;-122.432;2024-02-23T03:29:48;4;4;
80965;PMS5003;70426;37.772;-122.432;2024-02-23T03:32:13;4;3;
80965;PMS5003;70426;37.772;-122.432;2024-02-23T03:34:38;5;4;
80965;PMS5003;70426;37.772;-122.432;2024-02-23T03:37:03;5;5;
80965;PMS5003;70426;37.772;-122.432;2024-02-23T03:39:28;8;7;
80965;PMS5003;70426;37.772;-122.432;2024-02-23T03:41:53;6;5;
80965;PMS5003;70426;37.772;-122.432;2024-02-23T03:44:18;8;8;
80965;PMS5003;70426;37.772;-122.432;2024-02-23T03:46:43;6;6;
80965;PMS5003;70426;37.772;-122.432;2024-02-23T03:49:08;9;8;
80965;PMS5003;70426;37.772;-122.432;2024-02-23T03:51:33;8;8;
80965;PMS5003;70426;37.772;-122.432;2024-02-23T03:53:58;7;7;
80965;PMS5003;70426;37.772;-122.432;2024-02-23T03:56:23;7;7;
80965;PMS5003;70426;37.772;-122.432;2024-02-23T03:58:48;6;6;
80965;PMS5003;70426;37.772;-122.432;2024-02-23T04:01:13;7;6;
80965;PMS5003;70426;37.772;-122.432;2024-02-23T04:03:38;7;7;
80965;PMS5003;70426;37.772;-122.432;2024-02-23T04:06:03;7;7;
80965;PMS5003;70426;37.772;-122.432;2024-02-23T04:08:28;8;7;
80965;PMS5003;70426;37.772;-122.432;2024-02-23T04:10:53;7;7;
80965;PMS5003;70426;37.772;-122.432;2024-02-23T04:13:19;7;6;
80965;PMS5003;70426;37.772;-122.432;2024-02-23T04:15:43;7;7;
80965;PMS5003;70426;37.772;-122.432;2024-02-23T04:18:09;9;8;
80965;PMS5003;70426;37.772;-122.432;2024-02-23T04:20:34;7;7;
80965;PMS5003;70426;37.772;-122.432;2024-02-23T04:22:58;8;8;
80965;PMS5003;70426;37.772;-122.432;2024-02-23T04:25:24;10;9;
80965;PMS5003;70426;37.772;-122.432;2024-02-23T04:27:49;9;8;
80965;PMS5003;70426;37.772;-122.432;2024-02-23T04:30:14;7;7;
80965;PMS5003;70426;37.772;-122.432;2024-02-23T04:32:39;9;8;
80965;PMS5003;70426;37.772;-122.432;2024-02-23T04:35:04;6;6;
80965;PMS5003;70426;37.772;-122.432;2024-02-23T04:37:29;8;8;
80965;PMS5003;70426;37.772;-122.432;2024-02-23T04:39:54;11;10;
80965;PMS5003;70426;37.772;-122.432;2024-02-23T04:42:20;8;7;
80965;PMS5003;70426;37.772;-122.432;2024-02-23T04:44:44;8;8;
80965;PMS5003;70426;37.772;-122.432;2024-02-23T04:47:09;11;9;
80965;PMS5003;70426;37.772;-122.432;2024-02-23T04:49:34;8;8;
80965;PMS5003;70426;37.772;-122.432;2024-02-23T04:52:00;10;8;
80965;PMS5003;70426;37.772;-122.432;2024-02-23T04:54:25;9;9;
80965;PMS5003;70426;37.772;-122.432;2024-02-23T04:56:50;8;8;
80965;PMS5003;70426;37.772;-122.432;2024-02-23T04:59:15;9;8;
80965;PMS5003;70426;37.772;-122.432;2024-02-23T05:01:40;8;8;
80965;PMS5003;70426;37.772;-122.432;2024-02-23T05:04:06;8;8;
80965;PMS5003;70426;37.772;-122.432;2024-02-23T05:06:30;9;9;
80965;PMS5003;70426;37.772;-122.432;2024-02-23T05:08:55;8;8;
80965;PMS5003;70426;37.772;-122.432;2024-02-23T05:11:20;9;9;
80965;PMS5003;70426;37.772;-122.432;2024-02-23T05:13:45;8;7;
80965;PMS5003;70426;37.772;-122.432;2024-02-23T05:16:10;8;7;
80965;PMS5003;70426;37.772;-122.432;2024-02-23T05:18:35;8;8;
80965;PMS5003;70426;37.772;-122.432;2024-02-23T05:21:00;9;8;
80965;PMS5003;70426;37.772;-122.432;2024-02-23T05:23:25;9;8;
80965;PMS5003;70426;37.772;-122.432;2024-02-23T05:25:50;8;8;
80965;PMS5003;70426;37.772;-122.432;2024-02-23T05:28:15;9;9;
80965;PMS5003;70426;37.772;-122.432;2024-02-23T05:30:40;8;8;
80965;PMS5003;70426;37.772;-122.432;2024-02-23T05:33:05;9;8;
80965;PMS5003;70426;37.772;-122.432;2024-02-23T05:35:30;9;9;
80965;PMS5003;70426;37.772;-122.432;2024-02-23T05:37:55;12;11;
80965;PMS5003;70426;37.772;-122.432;2024-02-23T05:40:21;9;9;
80965;PMS5003;70426;37.772;-122.432;2024-02-23T05:42:45;10;10;
80965;PMS5003;70426;37.772;-122.432;2024-02-23T05:45:10;12;11;
80965;PMS5003;70426;37.772;-122.432;2024-02-23T05:47:36;9;8;
80965;PMS5003;70426;37.772;-122.432;2024-02-23T05:50:00;11;10;
80965;PMS5003;70426;37.772;-122.432;2024-02-23T05:52:25;9;9;
80965;PMS5003;70426;37.772;-122.432;2024-02-23T05:54:50;10;9;
80965;PMS5003;70426;37.772;-122.432;2024-02-23T05:57:15;9;8;
80965;PMS5003;70426;37.772;-122.432;2024-02-23T05:59:41;9;9;
80965;PMS5003;70426;37.772;-122.432;2024-02-23T06:02:06;10;9;
80965;PMS5003;70426;37.772;-122.432;2024-02-23T06:04:31;7;6;
80965;PMS5003;70426;37.772;-122.432;2024-02-23T06:06:56;11;10;
80965;PMS5003;70426;37.772;-122.432;2024-02-23T06:09:21;8;8;
80965;PMS5003;70426;37.772;-122.432;2024-02-23T06:11:46;9;9;
80965;PMS5003;70426;37.772;-122.432;2024-02-23T06:14:11;8;8;
80965;PMS5003;70426;37.772;-122.432;2024-02-23T06:16:36;11;11;
80965;PMS5003;70426;37.772;-122.432;2024-02-23T06:19:01;9;8;
80965;PMS5003;70426;37.772;-122.432;2024-02-23T06:21:26;9;9;
80965;PMS5003;70426;37.772;-122.432;2024-02-23T06:23:51;10;10;
80965;PMS5003;70426;37.772;-122.432;2024-02-23T06:26:16;9;9;
80965;PMS5003;70426;37.772;-122.432;2024-02-23T06:28:41;9;9;
80965;PMS5003;70426;37.772;-122.432;2024-02-23T06:31:07;11;9;
80965;PMS5003;70426;37.772;-122.432;2024-02-23T06:33:31;9;9;
80965;PMS5003;70426;37.772;-122.432;2024-02-23T06:35:56;11;11;
80965;PMS5003;70426;37.772;-122.432;2024-02-23T06:38:21;8;7;
80965;PMS5003;70426;37.772;-122.432;2024-02-23T06:40:46;10;9;
80965;PMS5003;70426;37.772;-122.432;2024-02-23T06:43:11;10;9;
80965;PMS5003;70426;37.772;-122.432;2024-02-23T06:45:36;9;8;
80965;PMS5003;70426;37.772;-122.432;2024-02-23T06:48:01;12;9;
80965;PMS5003;70426;37.772;-122.432;2024-02-23T06:50:26;10;9;
80965;PMS5003;70426;37.772;-122.432;2024-02-23T06:52:52;9;7;
80965;PMS5003;70426;37.772;-122.432;2024-02-23T06:55:16;11;11;
80965;PMS5003;70426;37.772;-122.432;2024-02-23T06:57:41;8;8;
80965;PMS5003;70426;37.772;-122.432;2024-02-23T07:00:07;8;8;
80965;PMS5003;70426;37.772;-122.432;2024-02-23T07:02:32;8;7;
80965;PMS5003;70426;37.772;-122.432;2024-02-23T07:04:57;8;8;
80965;PMS5003;70426;37.772;-122.432;2024-02-23T07:07:22;8;7;
80965;PMS5003;70426;37.772;-122.432;2024-02-23T07:09:47;10;8;
80965;PMS5003;70426;37.772;-122.432;2024-02-23T07:12:12;6;6;
80965;PMS5003;70426;37.772;-122.432;2024-02-23T07:14:38;11;10;
80965;PMS5003;70426;37.772;-122.432;2024-02-23T07:17:02;7;7;
80965;PMS5003;70426;37.772;-122.432;2024-02-23T07:19:27;7;7;
80965;PMS5003;70426;37.772;-122.432;2024-02-23T07:21:52;7;7;
80965;PMS5003;70426;37.772;-122.432;2024-02-23T07:24:17;5;5;
80965;PMS5003;70426;37.772;-122.432;2024-02-23T07:26:42;7;7;
80965;PMS5003;70426;37.772;-122.432;2024-02-23T07:29:07;8;8;
80965;PMS5003;70426;37.772;-122.432;2024-02-23T07:31:32;7;5;
80965;PMS5003;70426;37.772;-122.432;2024-02-23T07:33:57;8;7;
80965;PMS5003;70426;37.772;-122.432;2024-02-23T07:36:23;5;5;
80965;PMS5003;70426;37.772;-122.432;2024-02-23T07:38:53;7;6;
80965;PMS5003;70426;37.772;-122.432;2024-02-23T07:41:12;7;7;
80965;PMS5003;70426;37.772;-122.432;2024-02-23T07:43:38;8;8;
80965;PMS5003;70426;37.772;-122.432;2024-02-23T07:46:03;8;7;
80965;PMS5003;70426;37.772;-122.432;2024-02-23T07:48:28;5;5;
80965;PMS5003;70426;37.772;-122.432;2024-02-23T07:50:53;6;6;
80965;PMS5003;70426;37.772;-122.432;2024-02-23T07:53:18;6;6;
80965;PMS5003;70426;37.772;-122.432;2024-02-23T07:55:43;6;6;
80965;PMS5003;70426;37.772;-122.432;2024-02-23T07:58:10;6;5;
80965;PMS5003;70426;37.772;-122.432;2024-02-23T08:00:33;6;6;
80965;PMS5003;70426;37.772;-122.432;2024-02-23T08:02:58;7;6;
80965;PMS5003;70426;37.772;-122.432;2024-02-23T08:05:23;4;4;
80965;PMS5003;70426;37.772;-122.432;2024-02-23T08:07:48;5;5;
80965;PMS5003;70426;37.772;-122.432;2024-02-23T08:10:14;6;6;
80965;PMS5003;70426;37.772;-122.432;2024-02-23T08:12:38;6;5;
80965;PMS5003;70426;37.772;-122.432;2024-02-23T08:15:04;6;6;
80965;PMS5003;70426;37.772;-122.432;2024-02-23T08:17:28;7;6;
80965;PMS5003;70426;37.772;-122.432;2024-02-23T08:19:53;7;7;
80965;PMS5003;70426;37.772;-122.432;2024-02-23T08:22:19;5;5;
80965;PMS5003;70426;37.772;-122.432;2024-02-23T08:24:44;5;5;
80965;PMS5003;70426;37.772;-122.432;2024-02-23T08:27:09;7;7;
80965;PMS5003;70426;37.772;-122.432;2024-02-23T08:29:37;8;5;
80965;PMS5003;70426;37.772;-122.432;2024-02-23T08:31:59;6;5;
80965;PMS5003;70426;37.772;-122.432;2024-02-23T08:34:24;4;4;
80965;PMS5003;70426;37.772;-122.432;2024-02-23T08:36:49;5;4;
80965;PMS5003;70426;37.772;-122.432;2024-02-23T08:39:14;4;4;
80965;PMS5003;70426;37.772;-122.432;2024-02-23T08:41:39;5;5;
80965;PMS5003;70426;37.772;-122.432;2024-02-23T08:44:04;6;6;
80965;PMS5003;70426;37.772;-122.432;2024-02-23T08:46:29;7;6;
80965;PMS5003;70426;37.772;-122.432;2024-02-23T08:48:54;4;4;
80965;PMS5003;70426;37.772;-122.432;2024-02-23T08:51:19;5;5;
80965;PMS5003;70426;37.772;-122.432;2024-02-23T08:53:44;4;4;
80965;PMS5003;70426;37.772;-122.432;2024-02-23T08:56:09;6;5;
80965;PMS5003;70426;37.772;-122.432;2024-02-23T08:58:34;3;3;
80965;PMS5003;70426;37.772;-122.432;2024-02-23T09:00:59;5;5;
80965;PMS5003;70426;37.772;-122.432;2024-02-23T09:03:24;4;4;
80965;PMS5003;70426;37.772;-122.432;2024-02-23T09:05:49;4;4;
80965;PMS5003;70426;37.772;-122.432;2024-02-23T09:08:14;4;4;
80965;PMS5003;70426;37.772;-122.432;2024-02-23T09:10:39;4;4;
80965;PMS5003;70426;37.772;-122.432;2024-02-23T09:13:04;4;4;
80965;PMS5003;70426;37.772;-122.432;2024-02-23T09:15:29;4;4;
80965;PMS5003;70426;37.772;-122.432;2024-02-23T09:17:54;4;4;
80965;PMS5003;70426;37.772;-122.432;2024-02-23T09:20:19;3;3;
80965;PMS5003;70426;37.772;-122.432;2024-02-23T09:22:44;4;3;
80965;PMS5003;70426;37.772;-122.432;2024-02-23T09:25:09;3;3;
80965;PMS5003;70426;37.772;-122.432;2024-02-23T09:27:34;5;5;
80965;PMS5003;70426;37.772;-122.432;2024-02-23T09:29:59;4;4;
80965;PMS5003;70426;37.772;-122.432;2024-02-23T09:32:24;7;6;
80965;PMS5003;70426;37.772;-122.432;2024-02-23T09:34:49;4;3;
80965;PMS5003;70426;37.772;-122.432;2024-02-23T09:37:14;4;4;
80965;PMS5003;70426;37.772;-122.432;2024-02-23T09:39:39;4;4;
80965;PMS5003;70426;37.772;-122.432;2024-02-23T09:42:04;4;3;
80965;PMS5003;70426;37.772;-122.432;2024-02-23T09:44:32;3;3;
80965;PMS5003;70426;37.772;-122.432;2024-02-23T09:46:54;5;5;
80965;PMS5003;70426;37.772;-122.432;2024-02-23T09:49:19;4;4;
80965;PMS5003;70426;37.772;-122.432;2024-02-23T09:51:44;5;5;
80965;PMS5003;70426;37.772;-122.432;2024-02-23T09:54:09;5;4;
80965;PMS5003;70426;37.772;-122.432;2024-02-23T09:56:34;3;3;
80965;PMS5003;70426;37.772;-122.432;2024-02-23T09:59:00;3;3;
80965;PMS5003;70426;37.772;-122.432;2024-02-23T10:01:27;3;3;
80965;PMS5003;70426;37.772;-122.432;2024-02-23T10:03:49;5;5;
80965;PMS5003;70426;37.772;-122.432;2024-02-23T10:06:15;4;3;
80965;PMS5003;70426;37.772;-122.432;2024-02-23T10:08:40;3;3;
80965;PMS5003;70426;37.772;-122.432;2024-02-23T10:11:04;3;3;
80965;PMS5003;70426;37.772;-122.432;2024-02-23T10:13:29;4;3;
80965;PMS5003;70426;37.772;-122.432;2024-02-23T10:15:54;4;4;
80965;PMS5003;70426;37.772;-122.432;2024-02-23T10:18:20;5;4;
80965;PMS5003;70426;37.772;-122.432;2024-02-23T10:20:45;3;3;
80965;PMS5003;70426;37.772;-122.432;2024-02-23T10:23:10;4;4;
80965;PMS5003;70426;37.772;-122.432;2024-02-23T10:25:35;3;3;
80965;PMS5003;70426;37.772;-122.432;2024-02-23T10:28:01;4;4;
80965;PMS5003;70426;37.772;-122.432;2024-02-23T10:30:26;2;2;
80965;PMS5003;70426;37.772;-122.432;2024-02-23T10:32:50;3;3;
80965;PMS5003;70426;37.772;-122.432;2024-02-23T10:35:15;2;2;
80965;PMS5003;70426;37.772;-122.432;2024-02-23T10:37:40;4;4;
80965;PMS5003;70426;37.772;-122.432;2024-02-23T10:40:05;3;3;
80965;PMS5003;70426;37.772;-122.432;2024-02-23T10:42:30;3;3;
80965;PMS5003;70426;37.772;-122.432;2024-02-23T10:44:55;2;2;
80965;PMS5003;70426;37.772;-122.432;2024-02-23T10:47:20;3;3;
80965;PMS5003;70426;37.772;-122.432;2024-02-23T10:49:45;2;2;
80965;PMS5003;70426;37.772;-122.432;2024-02-23T10:52:10;4;4;
80965;PMS5003;70426;37.772;-122.432;2024-02-23T10:54:35;3;3;
80965;PMS5003;70426;37.772;-122.432;2024-02-23T10:57:00;4;4;
80965;PMS5003;70426;37.772;-122.432;2024-02-23T10:59:25;1;1;
80965;PMS5003;70426;37.772;-122.432;2024-02-23T11:01:50;2;2;
80965;PMS5003;70426;37.772;-122.432;2024-02-23T11:04:16;3;2;
80965;PMS5003;70426;37.772;-122.432;2024-02-23T11:06:40;4;4;
80965;PMS5003;70426;37.772;-122.432;2024-02-23T11:09:06;3;3;
80965;PMS5003;70426;37.772;-122.432;2024-02-23T11:11:31;3;3;
80965;PMS5003;70426;37.772;-122.432;2024-02-23T11:13:56;2;2;
80965;PMS5003;70426;37.772;-122.432;2024-02-23T11:16:22;2;2;
80965;PMS5003;70426;37.772;-122.432;2024-02-23T11:18:46;3;3;
80965;PMS5003;70426;37.772;-122.432;2024-02-23T11:21:11;3;3;
80965;PMS5003;70426;37.772;-122.432;2024-02-23T11:23:40;2;2;
80965;PMS5003;70426;37.772;-122.432;2024-02-23T11:26:04;3;3;
80965;PMS5003;70426;37.772;-122.432;2024-02-23T11:28:26;4;2;
80965;PMS5003;70426;37.772;-122.432;2024-02-23T11:30:51;3;3;
80965;PMS5003;70426;37.772;-122.432;2024-02-23T11:33:16;3;2;
80965;PMS5003;70426;37.772;-122.432;2024-02-23T11:38:06;1;1;
80965;PMS5003;70426;37.772;-122.432;2024-02-23T11:40:31;2;2;
80965;PMS5003;70426;37.772;-122.432;2024-02-23T11:42:56;2;2;
80965;PMS5003;70426;37.772;-122.432;2024-02-23T11:45:21;2;1;
80965;PMS5003;70426;37.772;-122.432;2024-02-23T11:47:46;3;3;
80965;PMS5003;70426;37.772;-122.432;2024-02-23T11:50:13;2;2;
80965;PMS5003;70426;37.772;-122.432;2024-02-23T11:52:37;3;2;
80965;PMS5003;70426;37.772;-122.432;2024-02-23T11:55:01;2;2;
80965;PMS5003;70426;37.772;-122.432;2024-02-23T11:57:26;3;3;
80965;PMS5003;70426;37.772;-122.432;2024-02-23T11:59:51;3;2;
80965;PMS5003;70426;37.772;-122.432;2024-02-23T12:02:16;1;1;
80965;PMS5003;70426;37.772;-122.432;2024-02-23T12:04:42;5;4;
80965;PMS5003;70426;37.772;-122.432;2024-02-23T12:07:07;3;3;
80965;PMS5003;70426;37.772;-122.432;2024-02-23T12:09:32;3;3;
80965;PMS5003;70426;37.772;-122.432;2024-02-23T12:11:57;3;3;
80965;PMS5003;70426;37.772;-122.432;2024-02-23T12:14:22;3;3;
80965;PMS5003;70426;37.772;-122.432;2024-02-23T12:16:47;1;1;
80965;PMS5003;70426;37.772;-122.432;2024-02-23T12:19:12;2;2;
80965;PMS5003;70426;37.772;-122.432;2024-02-23T12:21:37;3;3;
80965;PMS5003;70426;37.772;-122.432;2024-02-23T12:24:04;3;2;
80965;PMS5003;70426;37.772;-122.432;2024-02-23T12:26:27;3;3;
80965;PMS5003;70426;37.772;-122.432;2024-02-23T12:28:52;2;2;
80965;PMS5003;70426;37.772;-122.432;2024-02-23T12:31:17;3;3;
80965;PMS5003;70426;37.772;-122.432;2024-02-23T12:33:42;3;2;
80965;PMS5003;70426;37.772;-122.432;2024-02-23T12:36:08;2;2;
80965;PMS5003;70426;37.772;-122.432;2024-02-23T12:38:32;2;2;
80965;PMS5003;70426;37.772;-122.432;2024-02-23T12:40:57;2;2;
80965;PMS5003;70426;37.772;-122.432;2024-02-23T12:43:23;4;3;
80965;PMS5003;70426;37.772;-122.432;2024-02-23T12:45:48;3;2;
80965;PMS5003;70426;37.772;-122.432;2024-02-23T12:48:13;3;2;
80965;PMS5003;70426;37.772;-122.432;2024-02-23T12:50:37;3;3;
80965;PMS5003;70426;37.772;-122.432;2024-02-23T12:53:03;4;3;
80965;PMS5003;70426;37.772;-122.432;2024-02-23T12:55:27;5;4;
80965;PMS5003;70426;37.772;-122.432;2024-02-23T12:57:53;2;2;
80965;PMS5003;70426;37.772;-122.432;2024-02-23T13:00:18;3;3;
80965;PMS5003;70426;37.772;-122.432;2024-02-23T13:02:43;2;2;
80965;PMS5003;70426;37.772;-122.432;2024-02-23T13:05:08;1;1;
80965;PMS5003;70426;37.772;-122.432;2024-02-23T13:07:33;3;3;
80965;PMS5003;70426;37.772;-122.432;2024-02-23T13:09:58;2;2;
80965;PMS5003;70426;37.772;-122.432;2024-02-23T13:12:23;1;1;
80965;PMS5003;70426;37.772;-122.432;2024-02-23T13:14:48;3;3;
80965;PMS5003;70426;37.772;-122.432;2024-02-23T13:17:13;3;3;
80965;PMS5003;70426;37.772;-122.432;2024-02-23T13:19:38;2;2;
80965;PMS5003;70426;37.772;-122.432;2024-02-23T13:22:03;2;2;
80965;PMS5003;70426;37.772;-122.432;2024-02-23T13:24:28;1;1;
80965;PMS5003;70426;37.772;-122.432;2024-02-23T13:26:53;2;2;
80965;PMS5003;70426;37.772;-122.432;2024-02-23T13:29:18;2;2;
80965;PMS5003;70426;37.772;-122.432;2024-02-23T13:31:43;3;2;
80965;PMS5003;70426;37.772;-122.432;2024-02-23T13:34:08;3;3;
80965;PMS5003;70426;37.772;-122.432;2024-02-23T13:36:33;2;2;
80965;PMS5003;70426;37.772;-122.432;2024-02-23T13:38:58;3;3;
80965;PMS5003;70426;37.772;-122.432;2024-02-23T13:41:23;3;3;
80965;PMS5003;70426;37.772;-122.432;2024-02-23T13:43:48;2;2;
80965;PMS5003;70426;37.772;-122.432;2024-02-23T13:46:13;3;3;
80965;PMS5003;70426;37.772;-122.432;2024-02-23T13:48:39;1;1;
80965;PMS5003;70426;37.772;-122.432;2024-02-23T13:51:04;2;2;
80965;PMS5003;70426;37.772;-122.432;2024-02-23T13:53:29;3;3;
80965;PMS5003;70426;37.772;-122.432;2024-02-23T13:55:54;3;3;
80965;PMS5003;70426;37.772;-122.432;2024-02-23T13:58:19;3;2;
80965;PMS5003;70426;37.772;-122.432;2024-02-23T14:00:44;2;2;
80965;PMS5003;70426;37.772;-122.432;2024-02-23T14:03:09;2;2;
80965;PMS5003;70426;37.772;-122.432;2024-02-23T14:05:34;2;2;
80965;PMS5003;70426;37.772;-122.432;2024-02-23T14:07:59;3;3;
80965;PMS5003;70426;37.772;-122.432;2024-02-23T14:10:24;2;2;
80965;PMS5003;70426;37.772;-122.432;2024-02-23T14:12:49;4;3;
80965;PMS5003;70426;37.772;-122.432;2024-02-23T14:15:15;2;2;
80965;PMS5003;70426;37.772;-122.432;2024-02-23T14:17:39;2;1;
80965;PMS5003;70426;37.772;-122.432;2024-02-23T14:20:05;5;5;
80965;PMS5003;70426;37.772;-122.432;2024-02-23T14:22:30;2;2;
80965;PMS5003;70426;37.772;-122.432;2024-02-23T14:24:55;4;3;
80965;PMS5003;70426;37.772;-122.432;2024-02-23T14:27:20;3;2;
80965;PMS5003;70426;37.772;-122.432;2024-02-23T14:29:46;3;3;
80965;PMS5003;70426;37.772;-122.432;2024-02-23T14:32:10;2;1;
80965;PMS5003;70426;37.772;-122.432;2024-02-23T14:34:35;1;1;
80965;PMS5003;70426;37.772;-122.432;2024-02-23T14:37:00;3;2;
80965;PMS5003;70426;37.772;-122.432;2024-02-23T14:39:25;3;2;
80965;PMS5003;70426;37.772;-122.432;2024-02-23T14:41:50;2;2;
80965;PMS5003;70426;37.772;-122.432;2024-02-23T14:44:15;2;2;
80965;PMS5003;70426;37.772;-122.432;2024-02-23T14:46:40;2;2;
80965;PMS5003;70426;37.772;-122.432;2024-02-23T14:49:06;4;3;
80965;PMS5003;70426;37.772;-122.432;2024-02-23T14:51:31;1;1;
80965;PMS5003;70426;37.772;-122.432;2024-02-23T14:53:56;2;2;
80965;PMS5003;70426;37.772;-122.432;2024-02-23T14:56:21;2;2;
80965;PMS5003;70426;37.772;-122.432;2024-02-23T14:58:46;3;3;
80965;PMS5003;70426;37.772;-122.432;2024-02-23T15:01:11;2;2;
80965;PMS5003;70426;37.772;-122.432;2024-02-23T15:03:36;2;2;
80965;PMS5003;70426;37.772;-122.432;2024-02-23T15:06:01;2;2;
80965;PMS5003;70426;37.772;-122.432;2024-02-23T15:08:26;4;2;
80965;PMS5003;70426;37.772;-122.432;2024-02-23T15:10:51;3;3;
80965;PMS5003;70426;37.772;-122.432;2024-02-23T15:13:16;2;2;
80965;PMS5003;70426;37.772;-122.432;2024-02-23T15:15:41;2;2;
80965;PMS5003;70426;37.772;-122.432;2024-02-23T15:18:06;2;2;
80965;PMS5003;70426;37.772;-122.432;2024-02-23T15:20:36;1;1;
80965;PMS5003;70426;37.772;-122.432;2024-02-23T15:22:56;2;2;
80965;PMS5003;70426;37.772;-122.432;2024-02-23T15:25:21;2;2;
80965;PMS5003;70426;37.772;-122.432;2024-02-23T15:27:46;2;2;
80965;PMS5003;70426;37.772;-122.432;2024-02-23T15:30:11;2;2;
80965;PMS5003;70426;37.772;-122.432;2024-02-23T15:32:36;2;2;
80965;PMS5003;70426;37.772;-122.432;2024-02-23T15:35:02;2;2;
80965;PMS5003;70426;37.772;-122.432;2024-02-23T15:37:26;1;1;
80965;PMS5003;70426;37.772;-122.432;2024-02-23T15:39:51;2;2;
80965;PMS5003;70426;37.772;-122.432;2024-02-23T15:42:17;2;2;
80965;PMS5003;70426;37.772;-122.432;2024-02-23T15:44:42;2;2;
80965;PMS5003;70426;37.772;-122.432;2024-02-23T15:47:07;4;2;